Time;durP1;ratioP1;P1;durP2;ratioP2;P2;SDS_P1;SDS_P2;PMS_P1;PMS_P2;Temp;Humidity;BMP_temperature;BMP_pressure;BME280_temperature;BME280_humidity;BME280_pressure;Samples;Min_cycle;Max_cycle;Signal;HPM_P1;HPM_P2
2022/01/14 00:02:12;;;;;;;;;;;16.60;99.90;;;;;;5036643;28;786;-45
2022/01/14 00:04:38;;;;;;;;;;;16.60;99.90;;;;;;5035927;28;1977;-45
2022/01/14 00:07:04;;;;;;;;;;;16.60;99.90;;;;;;5035957;28;838;-45
2022/01/14 00:09:31;;;;;;;;;;;16.50;99.90;;;;;;5036206;28;1155;-45
2022/01/14 00:12:00;;;;;;;;;;;16.50;99.90;;;;;;5017977;28;982;-45
2022/01/14 00:14:43;;;;;;;;;;;16.50;99.90;;;;;;5035884;28;818;-45
2022/01/14 00:17:13;;;;;;;;;;;16.40;99.90;;;;;;5036196;28;803;-55
2022/01/14 00:19:39;;;;;;;;;;;16.40;99.90;;;;;;5035960;28;830;-45
2022/01/14 00:22:13;;;;;;;;;;;16.30;99.90;;;;;;5036343;28;822;-45
2022/01/14 00:35:49;;;;;;;;;;;16.20;99.90;;;;;;5013678;28;850;-44
2022/01/14 00:38:15;;;;;;;;;;;16.20;99.90;;;;;;5035910;28;974;-45
2022/01/14 00:40:42;;;;;;;;;;;16.20;99.90;;;;;;5018487;28;918;-45
2022/01/14 00:43:09;;;;;;;;;;;16.10;99.90;;;;;;5035663;28;932;-45
2022/01/14 00:45:39;;;;;;;;;;;16.10;99.90;;;;;;5035898;28;1898;-45
2022/01/14 00:48:05;;;;;;;;;;;16.10;99.90;;;;;;5035827;28;908;-45
2022/01/14 00:50:33;;;;;;;;;;;16.00;99.90;;;;;;5035792;28;869;-44
2022/01/14 00:53:01;;;;;;;;;;;16.00;99.90;;;;;;5035124;28;810;-55
2022/01/14 00:55:44;;;;;;;;;;;16.00;99.90;;;;;;5035452;28;906;-45
2022/01/14 01:00:54;;;;;;;;;;;15.90;99.90;;;;;;5036066;28;819;-45
2022/01/14 01:03:20;;;;;;;;;;;15.90;99.90;;;;;;5035708;28;795;-49
2022/01/14 01:05:46;;;;;;;;;;;15.80;99.90;;;;;;5035667;28;1906;-55
2022/01/14 01:08:15;;;;;;;;;;;15.80;99.90;;;;;;5035646;28;833;-45
2022/01/14 01:10:48;;;;;;;;;;;15.80;99.90;;;;;;5013865;28;1177;-45
2022/01/14 01:13:23;;;;;;;;;;;15.80;99.90;;;;;;5016016;28;775;-45
2022/01/14 01:15:50;;;;;;;;;;;15.80;99.90;;;;;;5015953;28;1272;-45
2022/01/14 01:18:17;;;;;;;;;;;15.70;99.90;;;;;;5015784;28;998;-55
2022/01/14 01:20:43;;;;;;;;;;;15.70;99.90;;;;;;5015811;28;896;-55
2022/01/14 01:23:10;;;;;;;;;;;15.70;99.90;;;;;;5016064;28;829;-55
2022/01/14 01:25:43;;;;;;;;;;;15.60;99.90;;;;;;5010824;28;1906;-54
2022/01/14 01:28:11;;;;;;;;;;;15.60;99.90;;;;;;5011564;28;770;-45
2022/01/14 01:30:50;;;;;;;;;;;15.60;99.90;;;;;;5013262;28;1297;-45
2022/01/14 01:33:17;;;;;;;;;;;15.60;99.90;;;;;;5018893;28;797;-45
2022/01/14 01:35:43;;;;;;;;;;;15.60;99.90;;;;;;5019654;28;1011;-45
2022/01/14 01:38:16;;;;;;;;;;;15.50;99.90;;;;;;5019546;28;877;-45
2022/01/14 01:40:43;;;;;;;;;;;15.50;99.90;;;;;;5019186;28;1663;-45
2022/01/14 01:43:12;;;;;;;;;;;15.50;99.90;;;;;;5019495;28;830;-55
2022/01/14 01:45:39;;;;;;;;;;;15.50;99.90;;;;;;5017286;28;1902;-55
2022/01/14 01:48:06;;;;;;;;;;;15.40;99.90;;;;;;5017816;28;893;-55
2022/01/14 01:50:36;;;;;;;;;;;15.40;99.90;;;;;;5019464;28;907;-45
2022/01/14 01:53:04;;;;;;;;;;;15.40;99.90;;;;;;5018917;28;1004;-56
2022/01/14 01:55:30;;;;;;;;;;;15.30;99.90;;;;;;5019286;28;806;-56
2022/01/14 01:57:56;;;;;;;;;;;15.30;99.90;;;;;;5018843;28;853;-46
2022/01/14 02:00:23;;;;;;;;;;;15.30;99.90;;;;;;5019129;28;850;-46
2022/01/14 02:02:49;;;;;;;;;;;15.30;99.90;;;;;;5018459;28;1037;-45
2022/01/14 02:05:16;;;;;;;;;;;15.20;99.90;;;;;;5018868;28;1902;-55
2022/01/14 02:07:43;;;;;;;;;;;15.10;99.90;;;;;;5019114;28;1063;-55
2022/01/14 02:10:11;;;;;;;;;;;15.10;99.90;;;;;;5026551;28;983;-45
2022/01/14 02:12:49;;;;;;;;;;;15.10;99.90;;;;;;5037506;28;1384;-55
2022/01/14 02:15:28;;;;;;;;;;;15.10;99.90;;;;;;5037559;28;879;-55
2022/01/14 02:23:13;;;;;;;;;;;15.00;99.90;;;;;;5038656;28;759;-45
2022/01/14 02:25:40;;;;;;;;;;;14.90;99.90;;;;;;5037916;28;1899;-55
2022/01/14 02:28:09;;;;;;;;;;;14.90;99.90;;;;;;5038177;28;782;-55
2022/01/14 02:30:41;;;;;;;;;;;14.90;99.90;;;;;;5038244;28;808;-55
2022/01/14 02:33:09;;;;;;;;;;;14.90;99.90;;;;;;5038028;28;877;-55
2022/01/14 02:35:37;;;;;;;;;;;14.80;99.90;;;;;;5038315;28;872;-55
2022/01/14 02:38:03;;;;;;;;;;;14.80;99.90;;;;;;5038022;28;842;-55
2022/01/14 02:40:29;;;;;;;;;;;14.80;99.90;;;;;;5037796;28;857;-55
2022/01/14 02:42:59;;;;;;;;;;;14.80;99.90;;;;;;5035305;28;1400;-45
2022/01/14 02:45:28;;;;;;;;;;;14.70;99.90;;;;;;5037411;28;1911;-55
2022/01/14 02:47:54;;;;;;;;;;;14.70;99.90;;;;;;5037912;28;827;-45
2022/01/14 02:50:22;;;;;;;;;;;14.70;99.90;;;;;;5037951;28;825;-45
2022/01/14 02:55:20;;;;;;;;;;;14.70;99.90;;;;;;5037809;28;852;-55
2022/01/14 02:57:47;;;;;;;;;;;14.60;99.90;;;;;;5037385;28;813;-45
2022/01/14 03:00:16;;;;;;;;;;;14.60;99.90;;;;;;5037615;28;837;-56
2022/01/14 03:02:45;;;;;;;;;;;14.60;99.90;;;;;;5020229;28;913;-55
2022/01/14 03:05:12;;;;;;;;;;;14.60;99.90;;;;;;5037485;28;1910;-45
2022/01/14 03:07:39;;;;;;;;;;;14.60;99.90;;;;;;5037051;28;1144;-45
2022/01/14 03:10:06;;;;;;;;;;;14.50;99.90;;;;;;5000162;28;1120;-56
2022/01/14 03:12:32;;;;;;;;;;;14.50;99.90;;;;;;5017823;28;884;-45
2022/01/14 03:14:58;;;;;;;;;;;14.50;99.90;;;;;;5016311;28;771;-56
2022/01/14 03:17:24;;;;;;;;;;;14.50;99.90;;;;;;5030394;23;2127;-56
2022/01/14 03:19:52;;;;;;;;;;;14.50;99.90;;;;;;5043581;28;1090;-46
2022/01/14 03:27:32;;;;;;;;;;;14.40;99.90;;;;;;5057718;28;901;-45
2022/01/14 03:30:00;;;;;;;;;;;14.40;99.90;;;;;;5022477;28;1068;-55
2022/01/14 03:32:26;;;;;;;;;;;14.30;99.90;;;;;;5022080;28;936;-56
2022/01/14 03:34:54;;;;;;;;;;;14.40;99.90;;;;;;5057393;28;851;-57
2022/01/14 03:37:21;;;;;;;;;;;14.30;99.90;;;;;;5039535;28;1470;-46
2022/01/14 03:40:08;;;;;;;;;;;14.30;99.90;;;;;;5057206;28;1289;-45
2022/01/14 03:42:35;;;;;;;;;;;14.30;99.90;;;;;;5023038;28;1441;-55
2022/01/14 03:45:02;;;;;;;;;;;14.30;99.90;;;;;;5056228;28;1969;-45
2022/01/14 03:47:28;;;;;;;;;;;14.20;99.90;;;;;;5057048;28;871;-45
2022/01/14 03:49:54;;;;;;;;;;;14.20;99.90;;;;;;5056323;28;1007;-56
2022/01/14 03:52:22;;;;;;;;;;;14.20;99.90;;;;;;5056419;28;888;-46
2022/01/14 03:54:50;;;;;;;;;;;14.20;99.90;;;;;;5057015;28;894;-45
2022/01/14 03:57:16;;;;;;;;;;;14.20;99.90;;;;;;5022044;28;1200;-46
2022/01/14 03:59:42;;;;;;;;;;;14.10;99.90;;;;;;5057627;28;774;-46
2022/01/14 04:02:11;;;;;;;;;;;14.10;99.90;;;;;;5055612;28;957;-45
2022/01/14 04:04:38;;;;;;;;;;;14.10;99.90;;;;;;5022453;28;1978;-46
2022/01/14 04:07:05;;;;;;;;;;;14.10;99.90;;;;;;5058867;28;906;-55
2022/01/14 04:09:36;;;;;;;;;;;14.10;99.90;;;;;;5032924;28;939;-46
2022/01/14 04:12:07;;;;;;;;;;;14.00;99.90;;;;;;5057015;28;872;-46
2022/01/14 04:17:02;;;;;;;;;;;14.00;99.90;;;;;;5022333;28;1082;-46
2022/01/14 04:19:33;;;;;;;;;;;14.00;99.90;;;;;;5053249;28;754;-45
2022/01/14 04:21:59;;;;;;;;;;;14.00;99.90;;;;;;5039044;28;952;-46
2022/01/14 04:24:25;;;;;;;;;;;14.00;99.90;;;;;;5056784;28;887;-56
2022/01/14 04:26:53;;;;;;;;;;;13.90;99.90;;;;;;5055465;28;1910;-46
2022/01/14 04:29:22;;;;;;;;;;;13.90;99.90;;;;;;5056752;28;872;-55
2022/01/14 04:31:48;;;;;;;;;;;13.90;99.90;;;;;;5057071;28;855;-56
2022/01/14 04:34:17;;;;;;;;;;;13.90;99.90;;;;;;5056767;28;779;-46
2022/01/14 04:36:44;;;;;;;;;;;13.90;99.90;;;;;;5056937;28;932;-45
2022/01/14 04:39:10;;;;;;;;;;;13.80;99.90;;;;;;5056399;28;976;-45
2022/01/14 04:41:38;;;;;;;;;;;13.80;99.90;;;;;;5056825;28;898;-45
2022/01/14 04:44:06;;;;;;;;;;;13.80;99.90;;;;;;5053489;28;785;-45
2022/01/14 04:49:08;;;;;;;;;;;13.80;99.90;;;;;;5054436;28;826;-56
2022/01/14 04:51:34;;;;;;;;;;;13.80;99.90;;;;;;5056597;28;864;-56
2022/01/14 04:54:02;;;;;;;;;;;13.70;99.90;;;;;;5056411;28;862;-45
2022/01/14 04:56:28;;;;;;;;;;;13.80;99.90;;;;;;5056532;28;866;-56
2022/01/14 04:58:54;;;;;;;;;;;13.70;99.90;;;;;;5038389;28;1193;-56
2022/01/14 05:01:20;;;;;;;;;;;13.70;99.90;;;;;;5056190;28;944;-45
2022/01/14 05:03:46;;;;;;;;;;;13.70;99.90;;;;;;5074717;28;790;-45
2022/01/14 05:06:13;;;;;;;;;;;13.70;99.90;;;;;;5074775;28;1963;-45
2022/01/14 05:08:40;;;;;;;;;;;13.70;99.90;;;;;;5077821;28;894;-45
2022/01/14 05:11:39;;;;;;;;;;;13.70;99.90;;;;;;5094502;28;982;-45
2022/01/14 05:14:02;;;;;;;;;;;13.60;99.90;;;;;;5078718;28;1675;-56
2022/01/14 05:16:30;;;;;;;;;;;13.60;99.90;;;;;;5078397;28;806;-56
2022/01/14 05:18:56;;;;;;;;;;;13.60;99.90;;;;;;5029055;28;1066;-56
2022/01/14 05:21:25;;;;;;;;;;;13.60;99.90;;;;;;5060163;28;927;-45
2022/01/14 05:23:56;;;;;;;;;;;13.60;99.90;;;;;;5058749;28;962;-45
2022/01/14 05:26:23;;;;;;;;;;;13.60;99.90;;;;;;5059193;28;1969;-56
2022/01/14 05:28:52;;;;;;;;;;;13.50;99.90;;;;;;5059184;28;845;-45
2022/01/14 05:31:18;;;;;;;;;;;13.50;99.90;;;;;;5060407;28;798;-45
2022/01/14 05:33:46;;;;;;;;;;;13.50;99.90;;;;;;5058431;28;931;-56
2022/01/14 05:36:13;;;;;;;;;;;13.50;99.90;;;;;;5058172;28;1439;-56
2022/01/14 05:38:41;;;;;;;;;;;13.50;99.90;;;;;;5074444;28;1606;-56
2022/01/14 05:41:07;;;;;;;;;;;13.50;99.90;;;;;;5078459;28;919;-56
2022/01/14 05:43:33;;;;;;;;;;;13.50;99.90;;;;;;5077885;28;995;-56
2022/01/14 05:45:59;;;;;;;;;;;13.50;99.90;;;;;;5077072;28;1898;-56
2022/01/14 05:48:25;;;;;;;;;;;13.40;99.90;;;;;;5067009;28;1187;-56
2022/01/14 05:50:52;;;;;;;;;;;13.40;99.90;;;;;;5025052;28;900;-57
2022/01/14 05:53:18;;;;;;;;;;;13.40;99.90;;;;;;5059571;28;848;-57
2022/01/14 05:55:45;;;;;;;;;;;13.40;99.90;;;;;;5059825;28;805;-56
2022/01/14 05:58:12;;;;;;;;;;;13.40;99.90;;;;;;5059751;28;1160;-56
2022/01/14 06:00:39;;;;;;;;;;;13.40;99.90;;;;;;5024872;28;1067;-57
2022/01/14 06:03:07;;;;;;;;;;;13.40;99.90;;;;;;5058927;28;886;-56
2022/01/14 06:05:35;;;;;;;;;;;13.40;99.90;;;;;;5058998;28;1976;-56
2022/01/14 06:08:02;;;;;;;;;;;13.40;99.90;;;;;;5059356;28;926;-56
2022/01/14 06:10:32;;;;;;;;;;;13.40;99.90;;;;;;5024019;28;942;-56
2022/01/14 06:13:00;;;;;;;;;;;13.40;99.90;;;;;;5058531;28;881;-56
2022/01/14 06:15:27;;;;;;;;;;;13.40;99.90;;;;;;5059150;28;883;-56
2022/01/14 06:17:58;;;;;;;;;;;13.40;99.90;;;;;;5040320;28;1333;-45
2022/01/14 06:20:26;;;;;;;;;;;13.50;99.90;;;;;;5057178;28;1112;-45
2022/01/14 06:22:54;;;;;;;;;;;13.60;99.90;;;;;;5059070;28;792;-45
2022/01/14 06:25:20;;;;;;;;;;;13.60;99.90;;;;;;5059229;28;1905;-56
2022/01/14 06:27:46;;;;;;;;;;;13.70;99.90;;;;;;5059021;28;880;-56
2022/01/14 06:30:14;;;;;;;;;;;13.80;99.90;;;;;;5057639;28;1038;-45
2022/01/14 06:32:41;;;;;;;;;;;13.80;99.90;;;;;;5058716;28;845;-45
2022/01/14 06:35:11;;;;;;;;;;;13.90;99.90;;;;;;5058867;28;988;-45
2022/01/14 06:37:38;;;;;;;;;;;14.00;99.90;;;;;;5059011;28;871;-45
2022/01/14 06:40:04;;;;;;;;;;;14.00;99.90;;;;;;5058936;28;793;-45
2022/01/14 06:42:30;;;;;;;;;;;14.10;99.90;;;;;;5059012;28;792;-45
2022/01/14 06:44:56;;;;;;;;;;;14.20;99.90;;;;;;5057331;28;1902;-45
2022/01/14 06:47:23;;;;;;;;;;;14.20;99.90;;;;;;5058575;28;853;-45
2022/01/14 06:49:50;;;;;;;;;;;14.30;99.90;;;;;;5053641;28;907;-45
2022/01/14 06:52:16;;;;;;;;;;;14.40;99.90;;;;;;5040572;28;1010;-45
2022/01/14 06:54:42;;;;;;;;;;;14.40;99.90;;;;;;5058493;28;1153;-45
2022/01/14 06:57:09;;;;;;;;;;;14.50;99.90;;;;;;5058449;28;833;-56
2022/01/14 06:59:36;;;;;;;;;;;14.60;99.90;;;;;;5057033;28;944;-45
2022/01/14 07:02:03;;;;;;;;;;;14.60;99.90;;;;;;5058634;28;890;-45
2022/01/14 07:04:30;;;;;;;;;;;14.60;99.90;;;;;;5040098;28;1026;-45
2022/01/14 07:06:57;;;;;;;;;;;14.70;99.90;;;;;;5058219;28;1906;-45
2022/01/14 07:09:25;;;;;;;;;;;14.70;99.90;;;;;;5040196;28;940;-55
2022/01/14 07:11:56;;;;;;;;;;;14.80;99.90;;;;;;5007409;28;916;-55
2022/01/14 07:14:24;;;;;;;;;;;14.80;99.90;;;;;;5058187;28;856;-55
2022/01/14 07:16:52;;;;;;;;;;;14.80;99.90;;;;;;5040309;28;1063;-55
2022/01/14 07:19:21;;;;;;;;;;;14.80;99.90;;;;;;5057535;28;989;-45
2022/01/14 07:21:47;;;;;;;;;;;14.80;99.90;;;;;;5055701;28;901;-45
2022/01/14 07:24:14;;;;;;;;;;;14.90;99.90;;;;;;5058023;28;1213;-55
2022/01/14 07:26:42;;;;;;;;;;;14.90;99.90;;;;;;5057821;28;1975;-45
2022/01/14 07:29:08;;;;;;;;;;;14.90;99.90;;;;;;5056110;28;842;-45
2022/01/14 07:31:37;;;;;;;;;;;15.00;99.90;;;;;;5022724;28;983;-55
2022/01/14 07:34:09;;;;;;;;;;;15.00;99.90;;;;;;5057076;28;1029;-45
2022/01/14 07:36:37;;;;;;;;;;;15.00;99.90;;;;;;5062715;28;1316;-55
2022/01/14 07:39:05;;;;;;;;;;;15.00;99.90;;;;;;5075367;28;1007;-45
2022/01/14 07:41:33;;;;;;;;;;;15.10;99.90;;;;;;5076223;28;954;-45
2022/01/14 07:44:03;;;;;;;;;;;15.10;99.90;;;;;;5091356;28;907;-55
2022/01/14 07:46:30;;;;;;;;;;;15.10;99.90;;;;;;5057749;28;1910;-45
2022/01/14 07:48:58;;;;;;;;;;;15.20;99.90;;;;;;5066210;28;1249;-45
2022/01/14 07:51:23;;;;;;;;;;;15.20;99.90;;;;;;5066553;28;1033;-44
2022/01/14 07:53:49;;;;;;;;;;;15.20;99.90;;;;;;5057575;28;847;-44
2022/01/14 07:56:15;;;;;;;;;;;15.20;99.90;;;;;;5057490;28;806;-55
2022/01/14 07:58:45;;;;;;;;;;;15.20;99.90;;;;;;5057041;28;984;-55
2022/01/14 08:01:11;;;;;;;;;;;15.20;99.90;;;;;;5057136;28;1013;-54
2022/01/14 08:03:36;;;;;;;;;;;15.30;99.90;;;;;;5057054;28;836;-55
2022/01/14 08:06:04;;;;;;;;;;;15.30;99.90;;;;;;5056984;28;1910;-55
2022/01/14 08:08:31;;;;;;;;;;;15.30;99.90;;;;;;5022659;28;951;-45
2022/01/14 08:10:59;;;;;;;;;;;15.30;99.90;;;;;;5039126;28;941;-45
2022/01/14 08:13:29;;;;;;;;;;;15.30;99.90;;;;;;5056719;28;875;-45
2022/01/14 08:15:59;;;;;;;;;;;15.30;99.90;;;;;;5056112;28;878;-45
2022/01/14 08:18:28;;;;;;;;;;;15.30;99.90;;;;;;5056371;28;1406;-45
2022/01/14 08:20:56;;;;;;;;;;;15.30;99.90;;;;;;5056236;28;858;-56
2022/01/14 08:23:23;;;;;;;;;;;15.40;99.90;;;;;;5056864;28;855;-55
2022/01/14 08:25:53;;;;;;;;;;;15.40;99.90;;;;;;5057061;28;1918;-55
2022/01/14 08:28:20;;;;;;;;;;;15.40;99.90;;;;;;5056927;28;809;-55
2022/01/14 08:30:46;;;;;;;;;;;15.40;99.90;;;;;;5021950;28;916;-55
2022/01/14 08:33:15;;;;;;;;;;;15.50;99.90;;;;;;5056511;28;884;-55
2022/01/14 08:35:43;;;;;;;;;;;15.50;99.90;;;;;;5055405;28;983;-45
2022/01/14 08:38:11;;;;;;;;;;;15.50;99.90;;;;;;5056750;28;947;-55
2022/01/14 08:40:38;;;;;;;;;;;15.50;99.90;;;;;;5038795;28;931;-55
2022/01/14 08:43:06;;;;;;;;;;;15.50;99.90;;;;;;5056800;28;866;-55
2022/01/14 08:45:35;;;;;;;;;;;15.50;99.90;;;;;;5054675;28;1942;-56
2022/01/14 08:48:01;;;;;;;;;;;15.60;99.90;;;;;;5058331;28;1238;-45
2022/01/14 08:50:29;;;;;;;;;;;15.60;99.90;;;;;;5056256;28;938;-55
2022/01/14 08:52:57;;;;;;;;;;;15.60;99.90;;;;;;5054799;28;963;-45
2022/01/14 08:55:25;;;;;;;;;;;15.60;99.90;;;;;;5056050;28;1305;-45
2022/01/14 08:57:53;;;;;;;;;;;15.60;99.90;;;;;;5059314;28;937;-45
2022/01/14 09:00:20;;;;;;;;;;;15.70;99.90;;;;;;5021236;28;1209;-45
2022/01/14 09:02:46;;;;;;;;;;;15.70;99.90;;;;;;5066773;28;1377;-45
2022/01/14 09:05:13;;;;;;;;;;;15.70;99.90;;;;;;5059876;28;1981;-45
2022/01/14 09:07:40;;;;;;;;;;;15.70;99.90;;;;;;5054314;28;1089;-45
2022/01/14 09:10:11;;;;;;;;;;;15.70;99.90;;;;;;5024144;28;1110;-45
2022/01/14 09:12:40;;;;;;;;;;;15.70;99.90;;;;;;5019429;28;987;-44
2022/01/14 09:15:09;;;;;;;;;;;15.80;99.90;;;;;;4991906;28;1026;-45
2022/01/14 09:17:37;;;;;;;;;;;15.80;99.90;;;;;;5013695;28;1337;-44
2022/01/14 09:20:04;;;;;;;;;;;15.80;99.90;;;;;;5009473;28;1075;-45
2022/01/14 09:22:34;;;;;;;;;;;15.80;99.90;;;;;;5015094;28;852;-45
2022/01/14 09:25:02;;;;;;;;;;;15.80;99.90;;;;;;5014907;28;945;-45
2022/01/14 09:27:29;;;;;;;;;;;15.70;99.90;;;;;;5015099;28;1902;-45
2022/01/14 09:29:56;;;;;;;;;;;15.80;99.90;;;;;;5014744;28;1157;-55
2022/01/14 09:32:22;;;;;;;;;;;15.80;99.90;;;;;;5002439;28;1100;-44
2022/01/14 09:34:49;;;;;;;;;;;15.80;99.90;;;;;;5013831;28;850;-55
2022/01/14 09:37:17;;;;;;;;;;;15.80;99.90;;;;;;5014523;28;977;-54
2022/01/14 09:39:43;;;;;;;;;;;15.90;99.90;;;;;;5014848;28;1211;-54
2022/01/14 09:42:31;;;;;;;;;;;15.90;99.90;;;;;;5054312;28;1309;-54
2022/01/14 09:45:01;;;;;;;;;;;15.90;99.90;;;;;;5039124;28;1122;-55
2022/01/14 09:47:27;;;;;;;;;;;15.90;99.90;;;;;;5070611;28;1898;-55
2022/01/14 09:49:53;;;;;;;;;;;16.00;99.90;;;;;;5055153;28;1078;-56
2022/01/14 09:52:20;;;;;;;;;;;16.00;99.90;;;;;;5058755;28;1051;-45
2022/01/14 09:54:47;;;;;;;;;;;16.10;99.90;;;;;;5068340;28;1206;-45
2022/01/14 09:57:14;;;;;;;;;;;16.20;99.90;;;;;;5074798;28;1284;-55
2022/01/14 09:59:45;;;;;;;;;;;16.20;99.90;;;;;;5075141;28;1168;-55
2022/01/14 10:02:31;;;;;;;;;;;16.30;99.90;;;;;;5060475;28;1274;-55
2022/01/14 10:04:58;;;;;;;;;;;16.30;99.90;;;;;;5058367;28;1084;-55
2022/01/14 10:07:25;;;;;;;;;;;16.30;99.90;;;;;;5056854;28;1984;-55
2022/01/14 10:09:57;;;;;;;;;;;16.30;99.90;;;;;;5059847;28;1087;-54
2022/01/14 10:12:24;;;;;;;;;;;16.40;99.90;;;;;;5069953;28;1118;-55
2022/01/14 10:15:10;;;;;;;;;;;16.40;99.90;;;;;;5063874;28;1091;-45
2022/01/14 10:17:41;;;;;;;;;;;16.40;99.90;;;;;;5074071;28;1279;-45
2022/01/14 10:20:09;;;;;;;;;;;16.40;99.90;;;;;;5059220;28;909;-55
2022/01/14 10:22:40;;;;;;;;;;;16.50;99.90;;;;;;5059229;28;850;-46
2022/01/14 10:25:13;;;;;;;;;;;16.40;99.90;;;;;;5020495;28;1030;-55
2022/01/14 10:27:39;;;;;;;;;;;16.50;99.90;;;;;;5058404;28;2011;-45
2022/01/14 10:30:25;;;;;;;;;;;16.50;99.90;;;;;;5059312;28;865;-56
2022/01/14 10:32:55;;;;;;;;;;;16.50;99.90;;;;;;5058847;28;912;-55
2022/01/14 10:35:24;;;;;;;;;;;16.50;99.90;;;;;;5058874;28;1044;-55
2022/01/14 10:37:54;;;;;;;;;;;16.60;99.90;;;;;;5041022;28;950;-45
2022/01/14 10:40:21;;;;;;;;;;;16.60;99.90;;;;;;5059048;28;886;-45
2022/01/14 10:42:50;;;;;;;;;;;16.60;99.90;;;;;;5058993;28;1104;-45
2022/01/14 10:45:25;;;;;;;;;;;16.50;99.90;;;;;;5076107;28;911;-45
2022/01/14 10:48:19;;;;;;;;;;;16.50;99.90;;;;;;5067398;28;1184;-45
2022/01/14 10:50:54;;;;;;;;;;;16.50;99.90;;;;;;5071427;28;1336;-45
2022/01/14 10:53:25;;;;;;;;;;;16.40;99.90;;;;;;5058560;28;1126;-45
2022/01/14 10:56:16;;;;;;;;;;;16.40;99.90;;;;;;5057309;28;917;-45
2022/01/14 10:58:51;;;;;;;;;;;16.30;99.90;;;;;;5055129;28;854;-45
2022/01/14 11:01:22;;;;;;;;;;;16.30;99.90;;;;;;5054510;28;924;-45
2022/01/14 11:03:52;;;;;;;;;;;16.20;99.90;;;;;;5057454;28;822;-45
2022/01/14 11:06:34;;;;;;;;;;;16.20;99.90;;;;;;5057734;28;1902;-45
2022/01/14 11:09:05;;;;;;;;;;;16.20;99.90;;;;;;5069365;28;848;-45
2022/01/14 11:11:36;;;;;;;;;;;16.20;99.90;;;;;;5056923;28;753;-55
2022/01/14 11:14:03;;;;;;;;;;;16.20;99.90;;;;;;5057749;28;963;-45
2022/01/14 11:16:31;;;;;;;;;;;16.20;99.90;;;;;;5056791;28;972;-45
2022/01/14 11:19:00;;;;;;;;;;;16.20;99.90;;;;;;5022952;28;1062;-45
2022/01/14 11:24:25;;;;;;;;;;;16.20;99.90;;;;;;5057809;28;841;-45
2022/01/14 11:26:57;;;;;;;;;;;16.20;99.90;;;;;;5057845;28;1905;-55
2022/01/14 11:29:23;;;;;;;;;;;16.20;99.90;;;;;;5058228;28;777;-45
2022/01/14 11:32:02;;;;;;;;;;;16.20;99.90;;;;;;5057902;28;1117;-45
2022/01/14 11:34:29;;;;;;;;;;;16.20;99.90;;;;;;5016278;28;982;-55
2022/01/14 11:37:00;;;;;;;;;;;16.20;99.90;;;;;;5016557;28;897;-54
2022/01/14 11:39:31;;;;;;;;;;;16.20;99.90;;;;;;5015737;28;879;-45
2022/01/14 11:42:34;;;;;;;;;;;16.20;99.90;;;;;;5016023;28;1226;-55
2022/01/14 11:45:05;;;;;;;;;;;16.10;99.90;;;;;;5034625;28;881;-45
2022/01/14 11:47:42;;;;;;;;;;;16.10;99.90;;;;;;5014334;28;1898;-45
2022/01/14 11:50:27;;;;;;;;;;;16.10;99.90;;;;;;4999309;28;1016;-45
2022/01/14 11:52:53;;;;;;;;;;;16.10;99.90;;;;;;5016250;28;865;-45
2022/01/14 11:55:23;;;;;;;;;;;16.00;99.90;;;;;;5016022;28;963;-45
2022/01/14 11:57:53;;;;;;;;;;;16.00;99.90;;;;;;4983723;28;986;-45
2022/01/14 12:00:28;;;;;;;;;;;16.00;99.90;;;;;;5015999;28;884;-45
2022/01/14 12:02:54;;;;;;;;;;;16.00;99.90;;;;;;5015741;28;795;-45
2022/01/14 12:05:26;;;;;;;;;;;15.90;99.90;;;;;;5037775;28;1053;-45
2022/01/14 12:08:22;;;;;;;;;;;15.90;99.90;;;;;;5056795;28;1894;-55
2022/01/14 12:10:50;;;;;;;;;;;15.90;99.90;;;;;;4960601;28;1090;-55
2022/01/14 12:13:16;;;;;;;;;;;15.90;99.90;;;;;;4976311;28;1111;-55
2022/01/14 12:15:55;;;;;;;;;;;15.90;99.90;;;;;;4976292;28;952;-54
2022/01/14 12:18:42;;;;;;;;;;;15.80;99.90;;;;;;4975601;28;1043;-55
2022/01/14 12:21:09;;;;;;;;;;;15.70;99.90;;;;;;4972585;28;1054;-45
2022/01/14 12:23:35;;;;;;;;;;;15.70;99.90;;;;;;4960298;28;1009;-44
2022/01/14 12:26:14;;;;;;;;;;;15.70;99.90;;;;;;4976143;28;1918;-44
2022/01/14 12:28:40;;;;;;;;;;;15.70;99.90;;;;;;4960329;28;965;-45
2022/01/14 12:31:08;;;;;;;;;;;15.70;99.90;;;;;;4960464;28;896;-45
2022/01/14 12:33:42;;;;;;;;;;;15.70;99.90;;;;;;4976230;28;1074;-45
2022/01/14 12:36:12;;;;;;;;;;;15.60;99.90;;;;;;4975814;28;882;-45
2022/01/14 12:38:40;;;;;;;;;;;15.60;99.90;;;;;;4976376;28;1468;-48
2022/01/14 12:41:16;;;;;;;;;;;15.60;99.90;;;;;;4965530;28;1105;-45
2022/01/14 12:43:54;;;;;;;;;;;15.60;99.90;;;;;;4960161;28;891;-45
2022/01/14 12:46:55;;;;;;;;;;;15.60;99.90;;;;;;4987116;28;1980;-45
2022/01/14 12:49:19;;;;;;;;;;;15.50;99.90;;;;;;5052814;28;1684;-45
2022/01/14 12:51:45;;;;;;;;;;;15.50;99.90;;;;;;5056563;28;817;-45
2022/01/14 12:54:13;;;;;;;;;;;15.50;99.90;;;;;;5056404;28;773;-45
2022/01/14 12:56:40;;;;;;;;;;;15.50;99.90;;;;;;5055046;28;909;-45
2022/01/14 12:59:06;;;;;;;;;;;15.40;99.90;;;;;;5056111;28;971;-45
2022/01/14 13:01:32;;;;;;;;;;;15.40;99.90;;;;;;5056475;28;827;-45
2022/01/14 13:04:01;;;;;;;;;;;15.40;99.90;;;;;;5053911;28;944;-45
2022/01/14 13:06:42;;;;;;;;;;;15.40;99.90;;;;;;5054808;28;1977;-45
2022/01/14 13:09:09;;;;;;;;;;;15.40;99.90;;;;;;5038441;28;1098;-54
2022/01/14 13:11:46;;;;;;;;;;;15.30;99.90;;;;;;5056238;28;971;-55
2022/01/14 13:14:17;;;;;;;;;;;15.30;99.90;;;;;;5074183;28;896;-54
2022/01/14 13:16:44;;;;;;;;;;;15.30;99.90;;;;;;5072653;28;1106;-54
2022/01/14 13:19:21;;;;;;;;;;;15.30;99.90;;;;;;5057587;28;1185;-45
2022/01/14 13:21:47;;;;;;;;;;;15.30;99.90;;;;;;5055129;28;968;-45
2022/01/14 13:24:41;;;;;;;;;;;15.20;99.90;;;;;;5056018;28;902;-45
2022/01/14 13:27:11;;;;;;;;;;;15.20;99.90;;;;;;5018126;28;1910;-54
2022/01/14 13:30:00;;;;;;;;;;;15.10;99.90;;;;;;5060422;28;754;-54
2022/01/14 13:32:29;;;;;;;;;;;15.10;99.90;;;;;;5060004;28;897;-54
2022/01/14 13:34:59;;;;;;;;;;;15.10;99.90;;;;;;5042107;28;801;-54
2022/01/14 13:37:27;;;;;;;;;;;15.10;99.90;;;;;;5057505;28;1277;-55
2022/01/14 13:40:04;;;;;;;;;;;15.10;99.90;;;;;;5059634;28;916;-45
2022/01/14 13:42:30;;;;;;;;;;;15.10;99.90;;;;;;5078142;28;1048;-45
2022/01/14 13:45:23;;;;;;;;;;;15.10;99.90;;;;;;5078405;28;887;-45
2022/01/14 13:48:09;;;;;;;;;;;15.10;99.90;;;;;;5051076;28;1979;-45
2022/01/14 13:50:43;;;;;;;;;;;15.10;99.90;;;;;;5058969;28;1151;-45
2022/01/14 13:53:13;;;;;;;;;;;15.10;99.90;;;;;;5059892;28;870;-45
2022/01/14 13:55:45;;;;;;;;;;;15.00;99.90;;;;;;5071329;28;1482;-45
2022/01/14 13:58:29;;;;;;;;;;;15.10;99.90;;;;;;5077600;28;810;-45
2022/01/14 14:01:01;;;;;;;;;;;15.00;99.90;;;;;;5076535;28;928;-45
2022/01/14 14:06:27;;;;;;;;;;;15.00;99.90;;;;;;5077529;28;1918;-45
2022/01/14 14:09:09;;;;;;;;;;;15.00;99.90;;;;;;5076322;28;984;-45
2022/01/14 14:17:04;;;;;;;;;;;14.90;99.90;;;;;;5078020;28;794;-45
2022/01/14 14:19:51;;;;;;;;;;;14.90;99.90;;;;;;5056812;28;1363;-45
2022/01/14 14:22:43;;;;;;;;;;;14.90;99.90;;;;;;5059399;28;801;-45
2022/01/14 14:25:23;;;;;;;;;;;14.90;99.90;;;;;;4976944;28;1570;-45
2022/01/14 14:27:57;;;;;;;;;;;14.90;99.90;;;;;;4964002;28;1986;-45
2022/01/14 14:30:26;;;;;;;;;;;14.90;99.90;;;;;;4980159;28;953;-48
2022/01/14 14:32:54;;;;;;;;;;;14.80;99.90;;;;;;4980008;28;818;-45
2022/01/14 14:35:22;;;;;;;;;;;14.80;99.90;;;;;;4996157;28;969;-45
2022/01/14 14:37:53;;;;;;;;;;;14.80;99.90;;;;;;4963976;28;936;-45
2022/01/14 14:40:22;;;;;;;;;;;14.70;99.90;;;;;;4995333;28;909;-45
2022/01/14 14:43:08;;;;;;;;;;;14.70;99.90;;;;;;4982705;28;1014;-55
2022/01/14 14:45:34;;;;;;;;;;;14.70;99.90;;;;;;4996045;28;891;-54
2022/01/14 14:48:02;;;;;;;;;;;14.70;99.90;;;;;;4982700;28;1969;-54
2022/01/14 14:50:29;;;;;;;;;;;14.70;99.90;;;;;;4977213;28;1534;-45
2022/01/14 14:52:59;;;;;;;;;;;14.70;99.90;;;;;;4961991;28;1009;-45
2022/01/14 14:55:28;;;;;;;;;;;14.70;99.90;;;;;;4977859;28;928;-45
2022/01/14 14:57:54;;;;;;;;;;;14.70;99.90;;;;;;4977654;28;892;-45
2022/01/14 15:00:21;;;;;;;;;;;14.70;99.90;;;;;;4961943;28;939;-45
2022/01/14 15:02:48;;;;;;;;;;;14.60;99.90;;;;;;5008519;28;991;-45
2022/01/14 15:05:15;;;;;;;;;;;14.60;99.90;;;;;;5055807;28;1078;-45
2022/01/14 15:07:41;;;;;;;;;;;14.60;99.90;;;;;;5058178;28;1906;-45
2022/01/14 15:10:09;;;;;;;;;;;14.60;99.90;;;;;;5058013;28;1100;-45
2022/01/14 15:12:37;;;;;;;;;;;14.60;99.90;;;;;;5057972;28;887;-45
2022/01/14 15:15:18;;;;;;;;;;;14.60;99.90;;;;;;5056451;28;954;-45
2022/01/14 15:20:29;;;;;;;;;;;14.60;99.90;;;;;;5058012;28;821;-45
2022/01/14 15:22:56;;;;;;;;;;;14.50;99.90;;;;;;5057849;28;882;-46
2022/01/14 15:25:24;;;;;;;;;;;14.50;99.90;;;;;;5040540;28;885;-45
2022/01/14 15:27:51;;;;;;;;;;;14.50;99.90;;;;;;5057392;28;1914;-54
2022/01/14 15:30:20;;;;;;;;;;;14.50;99.90;;;;;;5057682;28;868;-55
2022/01/14 15:32:46;;;;;;;;;;;14.50;99.90;;;;;;5039429;28;1349;-45
2022/01/14 15:35:13;;;;;;;;;;;14.50;99.90;;;;;;5057506;28;797;-55
2022/01/14 15:37:40;;;;;;;;;;;14.50;99.90;;;;;;5057794;28;758;-55
2022/01/14 15:40:07;;;;;;;;;;;14.50;99.90;;;;;;5039782;28;1015;-55